HAZ3041 ZYCC-ZSHC
Flight info
| Callsign | HAZ3041 |
|---|---|
| Flight time | N/A |
| Altitude | 34100 |
| Route | LEMOT9D LEMOT A588 BIDIB A345 DDG DCT BIGBU DCT DONVO A326 IKADI W113 SOSMA W108 MATNU W115 PINOT B221 SUPAR W505 DSH |
| Aircraft | A20N/M-SDE2E3FGHIRWXY/LB1 |
Departure
| Time | 2026-04-21 10:14 |
|---|---|
| Airport | Changchun Longjia International Airport (ZYCC) |
Arrival
| Time | N/A |
|---|---|
| Airport | Hangzhou Xiaoshan International Airport (ZSHC) |
| Time | Latitude | Longitude | Altitude | Speed | Heading |
|---|---|---|---|---|---|
| 2026-04-21 10:04 | 44.00009 | 125.69931 | 642 ft | 0 kts | 50° |
| 2026-04-21 10:11 | 44.00010 | 125.69933 | 642 ft | 2 kts | 50° |
| 2026-04-21 10:11 | 44.00029 | 125.69963 | 641 ft | 6 kts | 48° |
| 2026-04-21 10:12 | 44.00074 | 125.69974 | 641 ft | 8 kts | 339° |
| 2026-04-21 10:12 | 44.00122 | 125.69923 | 641 ft | 9 kts | 319° |
| 2026-04-21 10:12 | 44.00172 | 125.69863 | 641 ft | 9 kts | 321° |
| 2026-04-21 10:12 | 44.00225 | 125.69803 | 642 ft | 9 kts | 320° |
| 2026-04-21 10:13 | 44.00276 | 125.69741 | 643 ft | 9 kts | 319° |
| 2026-04-21 10:13 | 44.00323 | 125.69680 | 644 ft | 8 kts | 302° |
| 2026-04-21 10:13 | 44.00315 | 125.69612 | 645 ft | 7 kts | 233° |
| 2026-04-21 10:13 | 44.00270 | 125.69537 | 647 ft | 28 kts | 230° |
| 2026-04-21 10:14 | 43.99971 | 125.69052 | 657 ft | 101 kts | 230° |
| 2026-04-21 10:14 | 43.99382 | 125.68109 | 698 ft | 156 kts | 229° |
| 2026-04-21 10:14 | 43.98623 | 125.66958 | 1233 ft | 163 kts | 233° |
| 2026-04-21 10:14 | 43.97899 | 125.65845 | 2032 ft | 156 kts | 236° |
| 2026-04-21 10:15 | 43.97180 | 125.64715 | 2660 ft | 160 kts | 238° |
| 2026-04-21 10:15 | 43.96426 | 125.63510 | 3121 ft | 173 kts | 240° |
| 2026-04-21 10:15 | 43.95630 | 125.62194 | 3545 ft | 189 kts | 240° |
| 2026-04-21 10:15 | 43.94731 | 125.60712 | 3922 ft | 211 kts | 239° |
| 2026-04-21 10:16 | 43.93744 | 125.59105 | 4375 ft | 231 kts | 238° |
| 2026-04-21 10:16 | 43.92666 | 125.57371 | 4888 ft | 249 kts | 237° |
| 2026-04-21 10:16 | 43.91509 | 125.55527 | 5597 ft | 259 kts | 237° |
| 2026-04-21 10:16 | 43.90325 | 125.53649 | 6541 ft | 260 kts | 237° |
| 2026-04-21 10:17 | 43.89138 | 125.51768 | 7495 ft | 261 kts | 237° |
| 2026-04-21 10:17 | 43.87970 | 125.49920 | 8492 ft | 260 kts | 237° |
| 2026-04-21 10:17 | 43.86788 | 125.48039 | 9421 ft | 260 kts | 237° |
| 2026-04-21 10:17 | 43.85609 | 125.46162 | 10327 ft | 261 kts | 237° |
| 2026-04-21 10:18 | 43.84414 | 125.44254 | 10990 ft | 271 kts | 237° |
| 2026-04-21 10:18 | 43.83145 | 125.42222 | 11392 ft | 289 kts | 236° |
| 2026-04-21 10:18 | 43.81771 | 125.40038 | 11784 ft | 308 kts | 235° |
| 2026-04-21 10:18 | 43.80076 | 125.38069 | 12101 ft | 340 kts | 217° |
| 2026-04-21 10:19 | 43.77733 | 125.36996 | 12640 ft | 369 kts | 195° |
| 2026-04-21 10:19 | 43.75132 | 125.37231 | 13422 ft | 391 kts | 173° |
| 2026-04-21 10:19 | 43.72572 | 125.38575 | 14230 ft | 400 kts | 166° |
| 2026-04-21 10:19 | 43.69976 | 125.40065 | 14856 ft | 406 kts | 165° |
| 2026-04-21 10:20 | 43.67361 | 125.41559 | 15606 ft | 408 kts | 166° |
| 2026-04-21 10:20 | 43.64749 | 125.43035 | 16429 ft | 408 kts | 166° |
| 2026-04-21 10:20 | 43.62141 | 125.44489 | 17039 ft | 413 kts | 166° |
| 2026-04-21 10:20 | 43.59451 | 125.45981 | 17604 ft | 420 kts | 166° |
| 2026-04-21 10:21 | 43.56718 | 125.47514 | 18181 ft | 426 kts | 166° |
| 2026-04-21 10:21 | 43.53980 | 125.49052 | 18787 ft | 430 kts | 166° |
| 2026-04-21 10:21 | 43.51183 | 125.50629 | 19420 ft | 434 kts | 166° |
| 2026-04-21 10:21 | 43.48370 | 125.52175 | 19929 ft | 437 kts | 169° |
| 2026-04-21 10:22 | 43.45454 | 125.52896 | 20460 ft | 416 kts | 192° |
| 2026-04-21 10:22 | 43.42728 | 125.52197 | 21126 ft | 390 kts | 212° |
| 2026-04-21 10:22 | 43.40331 | 125.50577 | 21742 ft | 382 kts | 219° |
| 2026-04-21 10:22 | 43.37988 | 125.48849 | 22157 ft | 389 kts | 219° |
| 2026-04-21 10:23 | 43.35599 | 125.47105 | 22619 ft | 395 kts | 219° |
| 2026-04-21 10:23 | 43.33115 | 125.45309 | 22855 ft | 406 kts | 218° |
| 2026-04-21 10:23 | 43.30612 | 125.43522 | 23315 ft | 410 kts | 219° |
| 2026-04-21 10:23 | 43.28060 | 125.41720 | 23816 ft | 412 kts | 218° |
| 2026-04-21 10:24 | 43.25503 | 125.39918 | 24202 ft | 417 kts | 218° |
| 2026-04-21 10:24 | 43.22926 | 125.38101 | 24692 ft | 418 kts | 218° |
| 2026-04-21 10:24 | 43.20353 | 125.36298 | 25096 ft | 421 kts | 219° |
| 2026-04-21 10:24 | 43.17721 | 125.34457 | 25520 ft | 422 kts | 218° |
| 2026-04-21 10:25 | 43.15136 | 125.32636 | 25942 ft | 423 kts | 219° |
| 2026-04-21 10:25 | 43.12510 | 125.30785 | 26319 ft | 424 kts | 219° |
| 2026-04-21 10:25 | 43.09904 | 125.28955 | 26645 ft | 426 kts | 220° |
| 2026-04-21 10:25 | 43.07271 | 125.27112 | 26981 ft | 428 kts | 220° |
| 2026-04-21 10:26 | 43.04599 | 125.25244 | 27272 ft | 431 kts | 220° |
| 2026-04-21 10:26 | 43.01955 | 125.23399 | 27603 ft | 430 kts | 220° |
| 2026-04-21 10:26 | 42.99295 | 125.21553 | 28118 ft | 426 kts | 221° |
| 2026-04-21 10:26 | 42.96606 | 125.19830 | 28573 ft | 434 kts | 217° |
| 2026-04-21 10:27 | 42.93703 | 125.18588 | 28976 ft | 449 kts | 208° |
| 2026-04-21 10:27 | 42.90566 | 125.17908 | 29434 ft | 463 kts | 201° |
| 2026-04-21 10:27 | 42.87342 | 125.17578 | 29948 ft | 462 kts | 200° |
| 2026-04-21 10:27 | 42.84210 | 125.17155 | 30238 ft | 451 kts | 206° |
| 2026-04-21 10:28 | 42.81157 | 125.16293 | 30486 ft | 438 kts | 212° |
| 2026-04-21 10:28 | 42.78335 | 125.15058 | 30896 ft | 421 kts | 218° |
| 2026-04-21 10:28 | 42.75705 | 125.13517 | 31350 ft | 406 kts | 223° |
| 2026-04-21 10:28 | 42.73220 | 125.11804 | 31733 ft | 401 kts | 224° |
| 2026-04-21 10:29 | 42.70760 | 125.10078 | 32135 ft | 398 kts | 225° |
| 2026-04-21 10:29 | 42.68302 | 125.08353 | 32423 ft | 399 kts | 225° |
| 2026-04-21 10:29 | 42.65830 | 125.06608 | 32574 ft | 401 kts | 224° |
| 2026-04-21 10:29 | 42.63337 | 125.04857 | 32849 ft | 401 kts | 224° |
| 2026-04-21 10:30 | 42.60885 | 125.03146 | 33194 ft | 398 kts | 224° |
| 2026-04-21 10:30 | 42.58420 | 125.01433 | 33588 ft | 393 kts | 225° |
| 2026-04-21 10:30 | 42.56065 | 124.99822 | 33809 ft | 371 kts | 225° |
| 2026-04-21 10:30 | 42.53805 | 124.98283 | 33815 ft | 354 kts | 226° |
| 2026-04-21 10:31 | 42.51676 | 124.96812 | 33831 ft | 342 kts | 226° |
| 2026-04-21 10:31 | 42.47499 | 124.93881 | 33829 ft | 336 kts | 227° |
| 2026-04-21 10:32 | 42.43321 | 124.90955 | 33827 ft | 339 kts | 227° |
| 2026-04-21 10:32 | 42.39099 | 124.88018 | 33829 ft | 339 kts | 227° |
| 2026-04-21 10:33 | 42.34931 | 124.85133 | 33837 ft | 338 kts | 227° |
| 2026-04-21 10:33 | 42.30753 | 124.82248 | 33831 ft | 337 kts | 227° |
| 2026-04-21 10:34 | 42.26557 | 124.79359 | 33829 ft | 337 kts | 226° |
| 2026-04-21 10:34 | 42.22388 | 124.76489 | 33837 ft | 337 kts | 226° |
| 2026-04-21 10:35 | 42.18240 | 124.73634 | 33834 ft | 337 kts | 226° |
| 2026-04-21 10:35 | 42.14080 | 124.70783 | 33836 ft | 334 kts | 226° |
| 2026-04-21 10:36 | 42.09943 | 124.67957 | 33833 ft | 336 kts | 227° |
| 2026-04-21 10:36 | 42.05763 | 124.65094 | 33839 ft | 337 kts | 226° |
| 2026-04-21 10:37 | 42.01601 | 124.62254 | 33829 ft | 334 kts | 226° |
| 2026-04-21 10:37 | 41.97494 | 124.59395 | 33844 ft | 329 kts | 229° |
| 2026-04-21 10:38 | 41.93498 | 124.56326 | 33833 ft | 329 kts | 229° |
| 2026-04-21 10:38 | 41.89512 | 124.53285 | 33839 ft | 332 kts | 228° |
| 2026-04-21 10:39 | 41.85522 | 124.50272 | 33852 ft | 329 kts | 229° |
| 2026-04-21 10:39 | 41.81574 | 124.47279 | 33839 ft | 326 kts | 229° |
| 2026-04-21 10:40 | 41.77637 | 124.44296 | 33851 ft | 327 kts | 228° |
| 2026-04-21 10:40 | 41.73660 | 124.41270 | 33865 ft | 325 kts | 228° |
| 2026-04-21 10:41 | 41.69750 | 124.38306 | 33858 ft | 324 kts | 228° |
| 2026-04-21 10:41 | 41.65783 | 124.35297 | 33868 ft | 327 kts | 228° |
| 2026-04-21 10:42 | 41.61823 | 124.32289 | 33864 ft | 326 kts | 228° |
| 2026-04-21 10:42 | 41.57878 | 124.29287 | 33861 ft | 327 kts | 227° |
| 2026-04-21 10:43 | 41.53933 | 124.26319 | 33881 ft | 326 kts | 227° |
| 2026-04-21 10:43 | 41.50009 | 124.23358 | 33885 ft | 325 kts | 228° |
| 2026-04-21 10:44 | 41.46042 | 124.20465 | 33876 ft | 333 kts | 223° |
| 2026-04-21 10:44 | 41.41579 | 124.18256 | 33877 ft | 352 kts | 215° |
| 2026-04-21 10:44 | 41.39159 | 124.17516 | 33882 ft | 366 kts | 210° |
| 2026-04-21 10:45 | 41.36583 | 124.17060 | 33882 ft | 377 kts | 204° |
| 2026-04-21 10:45 | 41.33941 | 124.16936 | 33888 ft | 389 kts | 199° |
| 2026-04-21 10:45 | 41.31204 | 124.17100 | 33897 ft | 397 kts | 196° |
| 2026-04-21 10:46 | 41.25672 | 124.17569 | 33893 ft | 399 kts | 196° |
| 2026-04-21 10:46 | 41.20171 | 124.18053 | 33906 ft | 398 kts | 196° |
| 2026-04-21 10:47 | 41.14710 | 124.18525 | 33905 ft | 393 kts | 196° |
| 2026-04-21 10:47 | 41.09256 | 124.18982 | 33910 ft | 392 kts | 196° |
| 2026-04-21 10:48 | 41.03798 | 124.19447 | 33904 ft | 394 kts | 195° |
| 2026-04-21 10:48 | 40.98338 | 124.20063 | 33917 ft | 395 kts | 195° |
| 2026-04-21 10:49 | 40.92842 | 124.20698 | 33915 ft | 395 kts | 195° |
| 2026-04-21 10:49 | 40.87363 | 124.21327 | 33928 ft | 396 kts | 195° |
| 2026-04-21 10:50 | 40.82793 | 124.21861 | 33920 ft | 394 kts | 194° |
| 2026-04-21 10:50 | 40.76403 | 124.22590 | 33924 ft | 394 kts | 194° |
| 2026-04-21 10:51 | 40.70891 | 124.23216 | 33929 ft | 398 kts | 194° |
| 2026-04-21 10:51 | 40.65380 | 124.23839 | 33929 ft | 398 kts | 194° |
| 2026-04-21 10:52 | 40.59848 | 124.24474 | 33934 ft | 393 kts | 194° |
| 2026-04-21 10:52 | 40.54385 | 124.25084 | 33937 ft | 396 kts | 193° |
| 2026-04-21 10:53 | 40.48860 | 124.25716 | 33938 ft | 398 kts | 193° |
| 2026-04-21 10:53 | 40.43372 | 124.26336 | 33937 ft | 394 kts | 193° |
| 2026-04-21 10:54 | 40.37913 | 124.26945 | 33952 ft | 396 kts | 193° |
| 2026-04-21 10:54 | 40.32388 | 124.27569 | 33961 ft | 396 kts | 193° |
| 2026-04-21 10:55 | 40.26982 | 124.27821 | 33956 ft | 383 kts | 199° |
| 2026-04-21 10:55 | 40.21759 | 124.27245 | 33948 ft | 369 kts | 206° |
| 2026-04-21 10:56 | 40.16753 | 124.26028 | 33962 ft | 362 kts | 208° |
| 2026-04-21 10:56 | 40.11837 | 124.24768 | 33971 ft | 360 kts | 207° |
| 2026-04-21 10:57 | 40.06929 | 124.23517 | 33967 ft | 360 kts | 207° |
| 2026-04-21 10:57 | 40.01959 | 124.22250 | 33970 ft | 363 kts | 207° |
| 2026-04-21 10:58 | 39.96992 | 124.20985 | 33980 ft | 362 kts | 207° |
| 2026-04-21 10:58 | 39.92042 | 124.19728 | 33985 ft | 360 kts | 207° |
| 2026-04-21 10:59 | 39.87102 | 124.18484 | 33988 ft | 364 kts | 207° |
| 2026-04-21 10:59 | 39.82139 | 124.17238 | 33998 ft | 364 kts | 207° |
| 2026-04-21 11:00 | 39.77176 | 124.15992 | 34004 ft | 362 kts | 207° |
| 2026-04-21 11:00 | 39.72234 | 124.14748 | 33995 ft | 361 kts | 207° |
| 2026-04-21 11:01 | 39.67296 | 124.13500 | 34009 ft | 365 kts | 207° |
| 2026-04-21 11:01 | 39.62309 | 124.12243 | 34011 ft | 364 kts | 206° |
| 2026-04-21 11:02 | 39.54876 | 124.10379 | 34023 ft | 364 kts | 206° |
| 2026-04-21 11:02 | 39.49752 | 124.09074 | 34025 ft | 378 kts | 206° |
| 2026-04-21 11:03 | 39.44639 | 124.07806 | 34034 ft | 375 kts | 206° |
| 2026-04-21 11:03 | 39.39500 | 124.06523 | 34026 ft | 378 kts | 206° |
| 2026-04-21 11:04 | 39.34354 | 124.05238 | 34030 ft | 378 kts | 206° |
| 2026-04-21 11:04 | 39.29206 | 124.03953 | 34041 ft | 374 kts | 205° |
| 2026-04-21 11:05 | 39.24092 | 124.02681 | 34043 ft | 376 kts | 205° |
| 2026-04-21 11:05 | 39.18950 | 124.01404 | 34056 ft | 378 kts | 206° |
| 2026-04-21 11:06 | 39.13812 | 124.00127 | 34054 ft | 377 kts | 206° |
| 2026-04-21 11:06 | 39.08650 | 123.98843 | 34062 ft | 377 kts | 206° |
| 2026-04-21 11:07 | 39.03488 | 123.97571 | 34061 ft | 379 kts | 205° |
| 2026-04-21 11:07 | 38.98329 | 123.96298 | 34059 ft | 376 kts | 206° |
| 2026-04-21 11:08 | 38.93173 | 123.95022 | 34077 ft | 376 kts | 205° |
| 2026-04-21 11:08 | 38.88001 | 123.93752 | 34079 ft | 380 kts | 205° |
| 2026-04-21 11:09 | 38.82840 | 123.92497 | 34078 ft | 377 kts | 205° |
| 2026-04-21 11:09 | 38.77667 | 123.91232 | 34077 ft | 379 kts | 205° |
| 2026-04-21 11:10 | 38.72487 | 123.89954 | 34079 ft | 380 kts | 206° |
| 2026-04-21 11:10 | 38.67463 | 123.88300 | 34086 ft | 369 kts | 211° |
| 2026-04-21 11:11 | 38.62704 | 123.86064 | 34085 ft | 362 kts | 215° |
| 2026-04-21 11:11 | 38.58007 | 123.83701 | 34086 ft | 363 kts | 215° |
| 2026-04-21 11:12 | 38.53330 | 123.81352 | 34090 ft | 363 kts | 214° |
| 2026-04-21 11:12 | 38.48629 | 123.78986 | 34090 ft | 362 kts | 214° |
| 2026-04-21 11:13 | 38.43924 | 123.76620 | 34092 ft | 363 kts | 214° |
| 2026-04-21 11:13 | 38.39250 | 123.74275 | 34089 ft | 363 kts | 214° |
| 2026-04-21 11:14 | 38.34528 | 123.71909 | 34093 ft | 362 kts | 214° |
| 2026-04-21 11:14 | 38.29831 | 123.69559 | 34101 ft | 365 kts | 214° |
| 2026-04-21 11:15 | 38.25127 | 123.67204 | 34101 ft | 365 kts | 214° |
| 2026-04-21 11:15 | 38.20416 | 123.64854 | 34099 ft | 364 kts | 214° |
| 2026-04-21 11:16 | 38.15652 | 123.62468 | 34110 ft | 377 kts | 214° |
| 2026-04-21 11:16 | 38.10646 | 123.59963 | 34108 ft | 394 kts | 213° |
| 2026-04-21 11:17 | 38.05467 | 123.57392 | 34111 ft | 407 kts | 213° |
| 2026-04-21 11:17 | 38.00133 | 123.54744 | 34115 ft | 412 kts | 212° |
| 2026-04-21 11:18 | 37.94799 | 123.52117 | 34114 ft | 411 kts | 212° |
| 2026-04-21 11:18 | 37.89485 | 123.49493 | 34115 ft | 414 kts | 213° |
| 2026-04-21 11:19 | 37.84100 | 123.46848 | 34119 ft | 414 kts | 212° |
| 2026-04-21 11:19 | 37.78722 | 123.44209 | 34127 ft | 414 kts | 212° |
| 2026-04-21 11:20 | 37.73397 | 123.41589 | 34125 ft | 413 kts | 212° |
| 2026-04-21 11:20 | 37.68009 | 123.38938 | 34130 ft | 414 kts | 212° |
| 2026-04-21 11:21 | 37.62538 | 123.36471 | 34124 ft | 422 kts | 208° |
| 2026-04-21 11:21 | 37.56786 | 123.34727 | 34131 ft | 433 kts | 201° |
| 2026-04-21 11:22 | 37.50774 | 123.33772 | 34133 ft | 440 kts | 194° |
| 2026-04-21 11:22 | 37.44557 | 123.33684 | 34135 ft | 450 kts | 190° |
| 2026-04-21 11:23 | 37.38316 | 123.33852 | 34138 ft | 451 kts | 189° |
| 2026-04-21 11:23 | 37.32039 | 123.34029 | 34143 ft | 451 kts | 189° |
| 2026-04-21 11:24 | 37.25792 | 123.34206 | 34141 ft | 450 kts | 189° |
| 2026-04-21 11:24 | 37.19542 | 123.34383 | 34144 ft | 450 kts | 189° |
| 2026-04-21 11:25 | 37.13289 | 123.34557 | 34149 ft | 450 kts | 189° |
| 2026-04-21 11:25 | 37.07023 | 123.34737 | 34154 ft | 452 kts | 189° |
| 2026-04-21 11:26 | 37.00736 | 123.34911 | 34154 ft | 452 kts | 189° |
| 2026-04-21 11:26 | 36.94467 | 123.35091 | 34158 ft | 452 kts | 189° |
| 2026-04-21 11:27 | 36.88216 | 123.35273 | 34159 ft | 451 kts | 189° |